sensor_id;sensor_type;location;lat;lon;timestamp;temperature;humidity
31542;DHT22;18152;49.986;8.646;2023-05-27T00:01:05;12.90;90.60
31542;DHT22;18152;49.986;8.646;2023-05-27T00:03:31;12.80;92.10
31542;DHT22;18152;49.986;8.646;2023-05-27T00:05:57;12.90;90.90
31542;DHT22;18152;49.986;8.646;2023-05-27T00:08:23;12.80;90.50
31542;DHT22;18152;49.986;8.646;2023-05-27T00:10:48;12.80;90.90
31542;DHT22;18152;49.986;8.646;2023-05-27T00:13:14;12.80;92.90
31542;DHT22;18152;49.986;8.646;2023-05-27T00:15:40;12.70;93.60
31542;DHT22;18152;49.986;8.646;2023-05-27T00:18:06;12.70;91.40
31542;DHT22;18152;49.986;8.646;2023-05-27T00:20:32;12.70;91.60
31542;DHT22;18152;49.986;8.646;2023-05-27T00:22:58;12.60;92.70
31542;DHT22;18152;49.986;8.646;2023-05-27T00:25:27;12.50;92.70
31542;DHT22;18152;49.986;8.646;2023-05-27T00:27:54;12.50;94.10
31542;DHT22;18152;49.986;8.646;2023-05-27T00:30:19;12.40;93.60
31542;DHT22;18152;49.986;8.646;2023-05-27T00:32:45;12.30;92.60
31542;DHT22;18152;49.986;8.646;2023-05-27T00:35:10;12.30;93.00
31542;DHT22;18152;49.986;8.646;2023-05-27T00:37:37;12.30;93.00
31542;DHT22;18152;49.986;8.646;2023-05-27T00:40:02;12.30;94.10
31542;DHT22;18152;49.986;8.646;2023-05-27T00:42:30;12.30;93.80
31542;DHT22;18152;49.986;8.646;2023-05-27T00:44:55;12.20;93.40
31542;DHT22;18152;49.986;8.646;2023-05-27T00:47:21;12.30;93.50
31542;DHT22;18152;49.986;8.646;2023-05-27T00:49:48;12.20;94.20
31542;DHT22;18152;49.986;8.646;2023-05-27T00:52:14;12.20;95.10
31542;DHT22;18152;49.986;8.646;2023-05-27T00:54:40;12.20;93.70
31542;DHT22;18152;49.986;8.646;2023-05-27T00:57:06;12.20;94.50
31542;DHT22;18152;49.986;8.646;2023-05-27T00:59:33;12.20;94.00
31542;DHT22;18152;49.986;8.646;2023-05-27T01:01:58;12.10;96.10
31542;DHT22;18152;49.986;8.646;2023-05-27T01:04:25;12.00;96.90
31542;DHT22;18152;49.986;8.646;2023-05-27T01:07:04;11.90;95.90
31542;DHT22;18152;49.986;8.646;2023-05-27T01:09:52;11.90;96.70
31542;DHT22;18152;49.986;8.646;2023-05-27T01:12:28;11.90;97.00
31542;DHT22;18152;49.986;8.646;2023-05-27T01:14:57;11.90;95.90
31542;DHT22;18152;49.986;8.646;2023-05-27T01:17:24;11.80;96.90
31542;DHT22;18152;49.986;8.646;2023-05-27T01:19:52;11.80;98.60
31542;DHT22;18152;49.986;8.646;2023-05-27T01:22:19;11.70;97.10
31542;DHT22;18152;49.986;8.646;2023-05-27T01:24:45;11.70;97.20
31542;DHT22;18152;49.986;8.646;2023-05-27T01:27:12;11.70;97.90
31542;DHT22;18152;49.986;8.646;2023-05-27T01:29:41;11.70;97.20
31542;DHT22;18152;49.986;8.646;2023-05-27T01:32:10;11.60;97.40
31542;DHT22;18152;49.986;8.646;2023-05-27T01:34:47;11.70;97.20
31542;DHT22;18152;49.986;8.646;2023-05-27T01:37:19;11.60;96.90
31542;DHT22;18152;49.986;8.646;2023-05-27T01:39:45;11.50;98.70
31542;DHT22;18152;49.986;8.646;2023-05-27T01:42:12;11.60;98.20
31542;DHT22;18152;49.986;8.646;2023-05-27T01:44:38;11.50;98.90
31542;DHT22;18152;49.986;8.646;2023-05-27T01:47:04;11.50;98.50
31542;DHT22;18152;49.986;8.646;2023-05-27T01:49:30;11.50;98.70
31542;DHT22;18152;49.986;8.646;2023-05-27T01:51:56;11.30;99.50
31542;DHT22;18152;49.986;8.646;2023-05-27T01:54:21;11.40;99.20
31542;DHT22;18152;49.986;8.646;2023-05-27T01:56:47;11.30;99.20
31542;DHT22;18152;49.986;8.646;2023-05-27T01:59:13;11.30;99.90
31542;DHT22;18152;49.986;8.646;2023-05-27T02:01:39;11.30;99.90
31542;DHT22;18152;49.986;8.646;2023-05-27T02:04:04;11.30;99.90
31542;DHT22;18152;49.986;8.646;2023-05-27T02:06:30;11.20;99.90
31542;DHT22;18152;49.986;8.646;2023-05-27T02:08:57;11.20;99.90
31542;DHT22;18152;49.986;8.646;2023-05-27T02:11:23;11.10;99.90
31542;DHT22;18152;49.986;8.646;2023-05-27T02:13:48;11.10;99.90
31542;DHT22;18152;49.986;8.646;2023-05-27T02:16:15;11.10;99.90
31542;DHT22;18152;49.986;8.646;2023-05-27T02:18:40;11.00;99.90
31542;DHT22;18152;49.986;8.646;2023-05-27T02:21:06;11.00;99.90
31542;DHT22;18152;49.986;8.646;2023-05-27T02:23:33;10.80;99.90
31542;DHT22;18152;49.986;8.646;2023-05-27T02:25:58;10.80;99.90
31542;DHT22;18152;49.986;8.646;2023-05-27T02:28:26;10.80;99.90
31542;DHT22;18152;49.986;8.646;2023-05-27T02:30:51;10.80;99.90
31542;DHT22;18152;49.986;8.646;2023-05-27T02:33:17;10.80;99.90
31542;DHT22;18152;49.986;8.646;2023-05-27T02:35:42;10.80;99.90
31542;DHT22;18152;49.986;8.646;2023-05-27T02:38:08;10.70;99.90
31542;DHT22;18152;49.986;8.646;2023-05-27T02:40:34;10.70;99.90
31542;DHT22;18152;49.986;8.646;2023-05-27T02:42:59;10.60;99.90
31542;DHT22;18152;49.986;8.646;2023-05-27T02:45:25;10.60;99.90
31542;DHT22;18152;49.986;8.646;2023-05-27T02:47:50;10.50;99.90
31542;DHT22;18152;49.986;8.646;2023-05-27T02:50:16;10.60;99.90
31542;DHT22;18152;49.986;8.646;2023-05-27T02:52:41;10.60;99.90
31542;DHT22;18152;49.986;8.646;2023-05-27T02:55:07;10.40;99.90
31542;DHT22;18152;49.986;8.646;2023-05-27T02:57:33;10.40;99.90
31542;DHT22;18152;49.986;8.646;2023-05-27T02:59:59;10.40;99.90
31542;DHT22;18152;49.986;8.646;2023-05-27T03:02:24;10.40;99.90
31542;DHT22;18152;49.986;8.646;2023-05-27T03:04:50;10.30;99.90
31542;DHT22;18152;49.986;8.646;2023-05-27T03:07:16;10.30;99.90
31542;DHT22;18152;49.986;8.646;2023-05-27T03:09:41;10.30;99.90
31542;DHT22;18152;49.986;8.646;2023-05-27T03:12:07;10.30;99.90
31542;DHT22;18152;49.986;8.646;2023-05-27T03:14:32;10.30;99.90
31542;DHT22;18152;49.986;8.646;2023-05-27T03:16:58;10.40;99.90
31542;DHT22;18152;49.986;8.646;2023-05-27T03:19:24;10.30;99.90
31542;DHT22;18152;49.986;8.646;2023-05-27T03:21:50;10.20;99.90
31542;DHT22;18152;49.986;8.646;2023-05-27T03:24:18;10.20;99.90
31542;DHT22;18152;49.986;8.646;2023-05-27T03:26:43;10.20;99.90
31542;DHT22;18152;49.986;8.646;2023-05-27T03:29:09;10.30;99.90
31542;DHT22;18152;49.986;8.646;2023-05-27T03:31:35;10.20;99.90
31542;DHT22;18152;49.986;8.646;2023-05-27T03:34:01;10.10;99.90
31542;DHT22;18152;49.986;8.646;2023-05-27T03:36:26;10.00;99.90
31542;DHT22;18152;49.986;8.646;2023-05-27T03:38:52;10.00;99.90
31542;DHT22;18152;49.986;8.646;2023-05-27T03:41:17;10.00;99.90
31542;DHT22;18152;49.986;8.646;2023-05-27T03:43:43;10.00;99.90
31542;DHT22;18152;49.986;8.646;2023-05-27T03:46:08;10.00;99.90
31542;DHT22;18152;49.986;8.646;2023-05-27T03:48:34;9.90;99.90
31542;DHT22;18152;49.986;8.646;2023-05-27T03:51:00;9.90;99.90
31542;DHT22;18152;49.986;8.646;2023-05-27T03:53:25;10.00;99.90
31542;DHT22;18152;49.986;8.646;2023-05-27T03:55:51;10.00;99.90
31542;DHT22;18152;49.986;8.646;2023-05-27T03:58:16;10.00;99.90
31542;DHT22;18152;49.986;8.646;2023-05-27T04:00:42;10.00;99.90
31542;DHT22;18152;49.986;8.646;2023-05-27T04:03:08;10.00;99.90
31542;DHT22;18152;49.986;8.646;2023-05-27T04:05:34;10.00;99.90
31542;DHT22;18152;49.986;8.646;2023-05-27T04:08:02;9.90;99.90
31542;DHT22;18152;49.986;8.646;2023-05-27T04:10:27;10.00;99.90
31542;DHT22;18152;49.986;8.646;2023-05-27T04:12:53;10.00;99.90
31542;DHT22;18152;49.986;8.646;2023-05-27T04:15:18;10.00;99.90
31542;DHT22;18152;49.986;8.646;2023-05-27T04:17:44;10.00;99.90
31542;DHT22;18152;49.986;8.646;2023-05-27T04:20:10;10.00;99.90
31542;DHT22;18152;49.986;8.646;2023-05-27T04:22:43;10.00;99.90
31542;DHT22;18152;49.986;8.646;2023-05-27T04:25:09;10.00;99.90
31542;DHT22;18152;49.986;8.646;2023-05-27T04:27:35;10.00;99.90
31542;DHT22;18152;49.986;8.646;2023-05-27T04:30:05;10.10;99.90
31542;DHT22;18152;49.986;8.646;2023-05-27T04:32:31;10.10;99.90
31542;DHT22;18152;49.986;8.646;2023-05-27T04:35:06;10.20;99.90
31542;DHT22;18152;49.986;8.646;2023-05-27T04:37:35;10.10;99.90
31542;DHT22;18152;49.986;8.646;2023-05-27T04:40:03;10.10;99.90
31542;DHT22;18152;49.986;8.646;2023-05-27T04:42:29;10.20;99.90
31542;DHT22;18152;49.986;8.646;2023-05-27T04:44:54;10.20;99.90
31542;DHT22;18152;49.986;8.646;2023-05-27T04:47:20;10.20;99.90
31542;DHT22;18152;49.986;8.646;2023-05-27T04:49:46;10.30;99.90
31542;DHT22;18152;49.986;8.646;2023-05-27T04:52:12;10.30;99.90
31542;DHT22;18152;49.986;8.646;2023-05-27T04:54:38;10.40;99.90
31542;DHT22;18152;49.986;8.646;2023-05-27T04:57:03;10.50;99.90
31542;DHT22;18152;49.986;8.646;2023-05-27T04:59:29;10.50;99.90
31542;DHT22;18152;49.986;8.646;2023-05-27T05:02:12;10.50;99.90
31542;DHT22;18152;49.986;8.646;2023-05-27T05:04:46;10.60;99.90
31542;DHT22;18152;49.986;8.646;2023-05-27T05:07:12;10.70;99.90
31542;DHT22;18152;49.986;8.646;2023-05-27T05:09:38;10.80;99.90
31542;DHT22;18152;49.986;8.646;2023-05-27T05:12:04;10.90;99.90
31542;DHT22;18152;49.986;8.646;2023-05-27T05:14:30;10.90;99.90
31542;DHT22;18152;49.986;8.646;2023-05-27T05:16:55;11.10;99.90
31542;DHT22;18152;49.986;8.646;2023-05-27T05:19:21;11.10;99.90
31542;DHT22;18152;49.986;8.646;2023-05-27T05:21:47;11.20;99.90
31542;DHT22;18152;49.986;8.646;2023-05-27T05:24:12;11.30;99.90
31542;DHT22;18152;49.986;8.646;2023-05-27T05:26:38;11.40;99.90
31542;DHT22;18152;49.986;8.646;2023-05-27T05:29:03;11.50;99.90
31542;DHT22;18152;49.986;8.646;2023-05-27T05:31:29;11.60;99.90
31542;DHT22;18152;49.986;8.646;2023-05-27T05:33:54;11.80;99.90
31542;DHT22;18152;49.986;8.646;2023-05-27T05:36:20;11.80;99.90
31542;DHT22;18152;49.986;8.646;2023-05-27T05:38:46;12.00;99.90
31542;DHT22;18152;49.986;8.646;2023-05-27T05:41:12;12.10;99.90
31542;DHT22;18152;49.986;8.646;2023-05-27T05:43:38;12.20;99.90
31542;DHT22;18152;49.986;8.646;2023-05-27T05:46:03;12.30;99.90
31542;DHT22;18152;49.986;8.646;2023-05-27T05:48:29;12.50;99.90
31542;DHT22;18152;49.986;8.646;2023-05-27T05:50:55;12.70;99.90
31542;DHT22;18152;49.986;8.646;2023-05-27T05:53:20;12.80;99.90
31542;DHT22;18152;49.986;8.646;2023-05-27T05:55:46;12.90;99.90
31542;DHT22;18152;49.986;8.646;2023-05-27T05:58:11;13.10;99.90
31542;DHT22;18152;49.986;8.646;2023-05-27T06:00:37;13.40;99.90
31542;DHT22;18152;49.986;8.646;2023-05-27T06:03:03;13.50;99.90
31542;DHT22;18152;49.986;8.646;2023-05-27T06:05:28;13.50;99.90
31542;DHT22;18152;49.986;8.646;2023-05-27T06:07:54;13.60;99.90
31542;DHT22;18152;49.986;8.646;2023-05-27T06:10:20;13.70;99.90
31542;DHT22;18152;49.986;8.646;2023-05-27T06:12:45;13.80;99.90
31542;DHT22;18152;49.986;8.646;2023-05-27T06:15:11;13.80;99.90
31542;DHT22;18152;49.986;8.646;2023-05-27T06:17:37;14.00;99.90
31542;DHT22;18152;49.986;8.646;2023-05-27T06:20:03;14.10;99.90
31542;DHT22;18152;49.986;8.646;2023-05-27T06:22:29;14.20;99.90
31542;DHT22;18152;49.986;8.646;2023-05-27T06:24:54;14.40;99.90
31542;DHT22;18152;49.986;8.646;2023-05-27T06:27:20;14.60;99.90
31542;DHT22;18152;49.986;8.646;2023-05-27T06:29:46;14.80;99.90
31542;DHT22;18152;49.986;8.646;2023-05-27T06:32:11;14.90;99.90
31542;DHT22;18152;49.986;8.646;2023-05-27T06:34:37;15.00;99.90
31542;DHT22;18152;49.986;8.646;2023-05-27T06:37:02;15.30;99.90
31542;DHT22;18152;49.986;8.646;2023-05-27T06:39:28;15.40;99.90
31542;DHT22;18152;49.986;8.646;2023-05-27T06:41:53;15.40;99.90
31542;DHT22;18152;49.986;8.646;2023-05-27T06:44:19;15.70;99.70
31542;DHT22;18152;49.986;8.646;2023-05-27T06:46:45;15.70;99.90
31542;DHT22;18152;49.986;8.646;2023-05-27T06:49:10;15.90;99.80
31542;DHT22;18152;49.986;8.646;2023-05-27T06:51:36;16.00;99.90
31542;DHT22;18152;49.986;8.646;2023-05-27T06:54:02;16.00;99.10
31542;DHT22;18152;49.986;8.646;2023-05-27T06:56:27;16.10;99.40
31542;DHT22;18152;49.986;8.646;2023-05-27T06:58:54;16.20;98.00
31542;DHT22;18152;49.986;8.646;2023-05-27T07:01:20;16.30;97.60
31542;DHT22;18152;49.986;8.646;2023-05-27T07:03:46;16.30;99.40
31542;DHT22;18152;49.986;8.646;2023-05-27T07:06:12;16.40;98.10
31542;DHT22;18152;49.986;8.646;2023-05-27T07:08:40;16.50;99.70
31542;DHT22;18152;49.986;8.646;2023-05-27T07:11:06;16.70;99.10
31542;DHT22;18152;49.986;8.646;2023-05-27T07:13:32;16.80;99.00
31542;DHT22;18152;49.986;8.646;2023-05-27T07:15:57;17.10;98.50
31542;DHT22;18152;49.986;8.646;2023-05-27T07:18:28;17.20;96.30
31542;DHT22;18152;49.986;8.646;2023-05-27T07:20:54;17.40;98.50
31542;DHT22;18152;49.986;8.646;2023-05-27T07:23:31;17.50;96.00
31542;DHT22;18152;49.986;8.646;2023-05-27T07:26:11;17.60;96.70
31542;DHT22;18152;49.986;8.646;2023-05-27T07:28:46;17.70;96.70
31542;DHT22;18152;49.986;8.646;2023-05-27T07:31:41;17.90;97.50
31542;DHT22;18152;49.986;8.646;2023-05-27T07:34:09;18.10;95.30
31542;DHT22;18152;49.986;8.646;2023-05-27T07:39:43;18.50;95.40
31542;DHT22;18152;49.986;8.646;2023-05-27T07:42:08;18.60;96.80
31542;DHT22;18152;49.986;8.646;2023-05-27T07:44:34;18.80;93.40
31542;DHT22;18152;49.986;8.646;2023-05-27T07:47:00;19.00;93.40
31542;DHT22;18152;49.986;8.646;2023-05-27T07:49:26;19.50;92.40
31542;DHT22;18152;49.986;8.646;2023-05-27T07:51:51;19.50;91.10
31542;DHT22;18152;49.986;8.646;2023-05-27T07:54:17;19.40;92.00
31542;DHT22;18152;49.986;8.646;2023-05-27T07:56:42;19.50;92.20
31542;DHT22;18152;49.986;8.646;2023-05-27T07:59:08;19.50;92.80
31542;DHT22;18152;49.986;8.646;2023-05-27T08:01:33;19.80;90.90
31542;DHT22;18152;49.986;8.646;2023-05-27T08:03:59;20.10;91.40
31542;DHT22;18152;49.986;8.646;2023-05-27T08:06:25;20.20;91.70
31542;DHT22;18152;49.986;8.646;2023-05-27T08:08:50;20.40;90.50
31542;DHT22;18152;49.986;8.646;2023-05-27T08:11:16;20.30;86.00
31542;DHT22;18152;49.986;8.646;2023-05-27T08:13:42;20.30;89.50
31542;DHT22;18152;49.986;8.646;2023-05-27T08:16:07;20.40;87.40
31542;DHT22;18152;49.986;8.646;2023-05-27T08:18:35;20.60;84.20
31542;DHT22;18152;49.986;8.646;2023-05-27T08:21:01;20.70;85.20
31542;DHT22;18152;49.986;8.646;2023-05-27T08:23:26;20.70;91.30
31542;DHT22;18152;49.986;8.646;2023-05-27T08:25:52;20.70;88.40
31542;DHT22;18152;49.986;8.646;2023-05-27T08:28:17;20.80;87.70
31542;DHT22;18152;49.986;8.646;2023-05-27T08:30:43;21.00;85.80
31542;DHT22;18152;49.986;8.646;2023-05-27T08:33:09;21.00;89.80
31542;DHT22;18152;49.986;8.646;2023-05-27T08:35:34;21.30;84.20
31542;DHT22;18152;49.986;8.646;2023-05-27T08:38:01;21.30;87.40
31542;DHT22;18152;49.986;8.646;2023-05-27T08:40:27;21.60;90.70
31542;DHT22;18152;49.986;8.646;2023-05-27T08:43:13;21.60;87.90
31542;DHT22;18152;49.986;8.646;2023-05-27T08:45:40;21.80;86.50
31542;DHT22;18152;49.986;8.646;2023-05-27T08:48:09;21.90;83.20
31542;DHT22;18152;49.986;8.646;2023-05-27T08:50:36;21.70;83.60
31542;DHT22;18152;49.986;8.646;2023-05-27T08:53:03;22.00;87.90
31542;DHT22;18152;49.986;8.646;2023-05-27T08:55:30;22.20;82.40
31542;DHT22;18152;49.986;8.646;2023-05-27T08:57:58;22.40;83.20
31542;DHT22;18152;49.986;8.646;2023-05-27T09:00:26;22.50;83.30
31542;DHT22;18152;49.986;8.646;2023-05-27T09:02:52;21.80;72.20
31542;DHT22;18152;49.986;8.646;2023-05-27T09:05:21;21.30;74.90
31542;DHT22;18152;49.986;8.646;2023-05-27T09:07:48;21.70;77.10
31542;DHT22;18152;49.986;8.646;2023-05-27T09:10:13;22.10;78.70
31542;DHT22;18152;49.986;8.646;2023-05-27T09:12:42;22.30;73.60
31542;DHT22;18152;49.986;8.646;2023-05-27T09:15:09;22.50;82.70
31542;DHT22;18152;49.986;8.646;2023-05-27T09:17:42;22.70;79.90
31542;DHT22;18152;49.986;8.646;2023-05-27T09:20:09;22.80;75.80
31542;DHT22;18152;49.986;8.646;2023-05-27T09:22:36;22.60;78.30
31542;DHT22;18152;49.986;8.646;2023-05-27T09:25:02;22.30;70.20
31542;DHT22;18152;49.986;8.646;2023-05-27T09:27:29;21.80;73.60
31542;DHT22;18152;49.986;8.646;2023-05-27T09:29:56;21.90;73.40
31542;DHT22;18152;49.986;8.646;2023-05-27T09:32:26;22.80;82.10
31542;DHT22;18152;49.986;8.646;2023-05-27T09:34:56;23.40;81.20
31542;DHT22;18152;49.986;8.646;2023-05-27T09:37:26;23.20;75.20
31542;DHT22;18152;49.986;8.646;2023-05-27T09:39:57;23.70;79.00
31542;DHT22;18152;49.986;8.646;2023-05-27T09:42:23;23.20;67.20
31542;DHT22;18152;49.986;8.646;2023-05-27T09:44:49;23.40;74.80
31542;DHT22;18152;49.986;8.646;2023-05-27T09:47:16;23.00;68.20
31542;DHT22;18152;49.986;8.646;2023-05-27T09:49:45;23.80;75.60
31542;DHT22;18152;49.986;8.646;2023-05-27T09:52:11;24.00;72.90
31542;DHT22;18152;49.986;8.646;2023-05-27T09:54:39;24.30;74.50
31542;DHT22;18152;49.986;8.646;2023-05-27T09:57:06;24.80;72.10
31542;DHT22;18152;49.986;8.646;2023-05-27T09:59:33;24.70;71.40
31542;DHT22;18152;49.986;8.646;2023-05-27T10:02:00;24.50;70.00
31542;DHT22;18152;49.986;8.646;2023-05-27T10:04:28;24.70;65.00
31542;DHT22;18152;49.986;8.646;2023-05-27T10:06:54;24.90;69.50
31542;DHT22;18152;49.986;8.646;2023-05-27T10:09:19;25.40;67.50
31542;DHT22;18152;49.986;8.646;2023-05-27T10:11:45;25.40;68.10
31542;DHT22;18152;49.986;8.646;2023-05-27T10:14:11;25.60;70.60
31542;DHT22;18152;49.986;8.646;2023-05-27T10:16:37;25.90;69.00
31542;DHT22;18152;49.986;8.646;2023-05-27T10:19:09;26.10;68.40
31542;DHT22;18152;49.986;8.646;2023-05-27T10:21:42;26.40;65.40
31542;DHT22;18152;49.986;8.646;2023-05-27T10:24:10;25.60;61.10
31542;DHT22;18152;49.986;8.646;2023-05-27T10:26:40;24.20;57.20
31542;DHT22;18152;49.986;8.646;2023-05-27T10:29:10;24.80;62.20
31542;DHT22;18152;49.986;8.646;2023-05-27T10:31:36;25.30;59.80
31542;DHT22;18152;49.986;8.646;2023-05-27T10:34:08;24.60;66.80
31542;DHT22;18152;49.986;8.646;2023-05-27T10:36:34;24.50;59.10
31542;DHT22;18152;49.986;8.646;2023-05-27T10:39:06;24.70;66.50
31542;DHT22;18152;49.986;8.646;2023-05-27T10:41:42;25.40;72.80
31542;DHT22;18152;49.986;8.646;2023-05-27T10:44:09;25.00;58.20
31542;DHT22;18152;49.986;8.646;2023-05-27T10:46:42;24.50;56.40
31542;DHT22;18152;49.986;8.646;2023-05-27T10:49:21;23.70;57.90
31542;DHT22;18152;49.986;8.646;2023-05-27T10:51:48;24.00;60.10
31542;DHT22;18152;49.986;8.646;2023-05-27T10:54:15;24.10;57.90
31542;DHT22;18152;49.986;8.646;2023-05-27T10:56:53;24.40;60.30
31542;DHT22;18152;49.986;8.646;2023-05-27T10:59:21;25.00;56.80
31542;DHT22;18152;49.986;8.646;2023-05-27T11:01:54;25.30;60.10
31542;DHT22;18152;49.986;8.646;2023-05-27T11:04:20;25.60;59.60
31542;DHT22;18152;49.986;8.646;2023-05-27T11:06:59;26.30;59.30
31542;DHT22;18152;49.986;8.646;2023-05-27T11:09:26;25.90;55.00
31542;DHT22;18152;49.986;8.646;2023-05-27T11:11:52;24.90;55.40
31542;DHT22;18152;49.986;8.646;2023-05-27T11:14:17;25.40;59.20
31542;DHT22;18152;49.986;8.646;2023-05-27T11:16:47;25.60;57.50
31542;DHT22;18152;49.986;8.646;2023-05-27T11:19:14;25.20;56.80
31542;DHT22;18152;49.986;8.646;2023-05-27T11:21:46;25.20;59.20
31542;DHT22;18152;49.986;8.646;2023-05-27T11:24:18;25.20;57.30
31542;DHT22;18152;49.986;8.646;2023-05-27T11:26:45;24.90;53.90
31542;DHT22;18152;49.986;8.646;2023-05-27T11:29:12;24.60;54.40
31542;DHT22;18152;49.986;8.646;2023-05-27T11:31:38;24.50;59.00
31542;DHT22;18152;49.986;8.646;2023-05-27T11:34:12;25.70;59.40
31542;DHT22;18152;49.986;8.646;2023-05-27T11:36:39;26.10;64.70
31542;DHT22;18152;49.986;8.646;2023-05-27T11:39:05;26.10;54.20
31542;DHT22;18152;49.986;8.646;2023-05-27T11:41:32;26.20;54.30
31542;DHT22;18152;49.986;8.646;2023-05-27T11:44:04;25.70;54.20
31542;DHT22;18152;49.986;8.646;2023-05-27T11:46:40;25.40;49.60
31542;DHT22;18152;49.986;8.646;2023-05-27T11:49:08;25.00;52.60
31542;DHT22;18152;49.986;8.646;2023-05-27T11:51:37;24.80;50.10
31542;DHT22;18152;49.986;8.646;2023-05-27T11:54:02;25.30;52.50
31542;DHT22;18152;49.986;8.646;2023-05-27T11:56:28;25.00;52.70
31542;DHT22;18152;49.986;8.646;2023-05-27T11:58:55;24.90;50.50
31542;DHT22;18152;49.986;8.646;2023-05-27T12:01:21;24.70;52.50
31542;DHT22;18152;49.986;8.646;2023-05-27T12:03:47;25.20;54.80
31542;DHT22;18152;49.986;8.646;2023-05-27T12:06:13;25.80;49.50
31542;DHT22;18152;49.986;8.646;2023-05-27T12:08:38;26.30;54.10
31542;DHT22;18152;49.986;8.646;2023-05-27T12:11:04;26.30;52.90
31542;DHT22;18152;49.986;8.646;2023-05-27T12:13:30;25.30;49.00
31542;DHT22;18152;49.986;8.646;2023-05-27T12:15:57;25.50;50.60
31542;DHT22;18152;49.986;8.646;2023-05-27T12:18:23;24.90;50.50
31542;DHT22;18152;49.986;8.646;2023-05-27T12:20:49;24.60;49.60
31542;DHT22;18152;49.986;8.646;2023-05-27T12:23:15;24.10;50.40
31542;DHT22;18152;49.986;8.646;2023-05-27T12:25:40;24.40;50.40
31542;DHT22;18152;49.986;8.646;2023-05-27T12:28:11;24.50;49.80
31542;DHT22;18152;49.986;8.646;2023-05-27T12:30:37;24.60;48.90
31542;DHT22;18152;49.986;8.646;2023-05-27T12:33:03;24.70;49.80
31542;DHT22;18152;49.986;8.646;2023-05-27T12:35:30;24.70;51.10
31542;DHT22;18152;49.986;8.646;2023-05-27T12:37:56;24.20;48.00
31542;DHT22;18152;49.986;8.646;2023-05-27T12:40:22;24.50;50.40
31542;DHT22;18152;49.986;8.646;2023-05-27T12:42:48;24.40;51.40
31542;DHT22;18152;49.986;8.646;2023-05-27T12:45:13;24.80;51.60
31542;DHT22;18152;49.986;8.646;2023-05-27T12:47:39;25.30;51.80
31542;DHT22;18152;49.986;8.646;2023-05-27T12:50:06;25.50;56.10
31542;DHT22;18152;49.986;8.646;2023-05-27T12:52:32;26.40;59.30
31542;DHT22;18152;49.986;8.646;2023-05-27T12:54:58;26.70;57.70
31542;DHT22;18152;49.986;8.646;2023-05-27T12:57:23;26.20;48.00
31542;DHT22;18152;49.986;8.646;2023-05-27T12:59:49;25.90;50.10
31542;DHT22;18152;49.986;8.646;2023-05-27T13:02:15;26.40;53.10
31542;DHT22;18152;49.986;8.646;2023-05-27T13:04:40;25.90;47.40
31542;DHT22;18152;49.986;8.646;2023-05-27T13:07:09;25.50;48.30
31542;DHT22;18152;49.986;8.646;2023-05-27T13:09:35;25.60;54.80
31542;DHT22;18152;49.986;8.646;2023-05-27T13:12:01;25.20;46.90
31542;DHT22;18152;49.986;8.646;2023-05-27T13:14:27;24.70;47.70
31542;DHT22;18152;49.986;8.646;2023-05-27T13:16:53;24.60;49.70
31542;DHT22;18152;49.986;8.646;2023-05-27T13:19:20;24.80;49.40
31542;DHT22;18152;49.986;8.646;2023-05-27T13:21:45;25.30;48.80
31542;DHT22;18152;49.986;8.646;2023-05-27T13:24:11;25.10;49.10
31542;DHT22;18152;49.986;8.646;2023-05-27T13:26:37;25.90;47.50
31542;DHT22;18152;49.986;8.646;2023-05-27T13:29:03;25.40;47.10
31542;DHT22;18152;49.986;8.646;2023-05-27T13:31:28;26.10;48.10
31542;DHT22;18152;49.986;8.646;2023-05-27T13:33:54;26.00;47.60
31542;DHT22;18152;49.986;8.646;2023-05-27T13:36:20;26.20;54.80
31542;DHT22;18152;49.986;8.646;2023-05-27T13:38:45;26.20;51.00
31542;DHT22;18152;49.986;8.646;2023-05-27T13:41:11;26.50;51.20
31542;DHT22;18152;49.986;8.646;2023-05-27T13:43:36;26.50;51.10
31542;DHT22;18152;49.986;8.646;2023-05-27T13:46:02;26.70;52.10
31542;DHT22;18152;49.986;8.646;2023-05-27T13:48:27;26.80;52.00
31542;DHT22;18152;49.986;8.646;2023-05-27T13:50:53;26.70;49.80
31542;DHT22;18152;49.986;8.646;2023-05-27T13:53:18;26.70;49.40
31542;DHT22;18152;49.986;8.646;2023-05-27T13:55:44;26.40;48.80
31542;DHT22;18152;49.986;8.646;2023-05-27T13:58:10;26.60;51.00
31542;DHT22;18152;49.986;8.646;2023-05-27T14:00:36;26.10;49.00
31542;DHT22;18152;49.986;8.646;2023-05-27T14:03:02;26.30;48.20
31542;DHT22;18152;49.986;8.646;2023-05-27T14:05:28;26.00;46.20
31542;DHT22;18152;49.986;8.646;2023-05-27T14:07:54;25.50;51.00
31542;DHT22;18152;49.986;8.646;2023-05-27T14:10:19;25.80;50.60
31542;DHT22;18152;49.986;8.646;2023-05-27T14:12:45;25.90;51.20
31542;DHT22;18152;49.986;8.646;2023-05-27T14:15:11;25.90;51.20
31542;DHT22;18152;49.986;8.646;2023-05-27T14:17:37;25.60;47.80
31542;DHT22;18152;49.986;8.646;2023-05-27T14:20:04;25.20;46.60
31542;DHT22;18152;49.986;8.646;2023-05-27T14:22:36;25.20;47.20
31542;DHT22;18152;49.986;8.646;2023-05-27T14:25:01;24.70;48.30
31542;DHT22;18152;49.986;8.646;2023-05-27T14:27:27;24.80;51.30
31542;DHT22;18152;49.986;8.646;2023-05-27T14:29:52;24.90;48.30
31542;DHT22;18152;49.986;8.646;2023-05-27T14:32:18;25.20;47.30
31542;DHT22;18152;49.986;8.646;2023-05-27T14:34:43;25.10;47.60
31542;DHT22;18152;49.986;8.646;2023-05-27T14:37:09;25.00;47.60
31542;DHT22;18152;49.986;8.646;2023-05-27T14:39:35;24.90;45.90
31542;DHT22;18152;49.986;8.646;2023-05-27T14:42:00;24.80;46.50
31542;DHT22;18152;49.986;8.646;2023-05-27T14:44:26;24.60;49.70
31542;DHT22;18152;49.986;8.646;2023-05-27T14:46:51;24.70;48.20
31542;DHT22;18152;49.986;8.646;2023-05-27T14:49:17;24.30;45.90
31542;DHT22;18152;49.986;8.646;2023-05-27T14:51:42;24.10;45.80
31542;DHT22;18152;49.986;8.646;2023-05-27T14:54:08;24.10;45.60
31542;DHT22;18152;49.986;8.646;2023-05-27T14:56:33;24.30;47.60
31542;DHT22;18152;49.986;8.646;2023-05-27T14:58:59;24.70;47.30
31542;DHT22;18152;49.986;8.646;2023-05-27T15:01:25;24.60;46.30
31542;DHT22;18152;49.986;8.646;2023-05-27T15:03:50;24.60;47.80
31542;DHT22;18152;49.986;8.646;2023-05-27T15:06:16;24.30;44.60
31542;DHT22;18152;49.986;8.646;2023-05-27T15:08:42;24.00;45.20
31542;DHT22;18152;49.986;8.646;2023-05-27T15:11:07;24.10;45.10
31542;DHT22;18152;49.986;8.646;2023-05-27T15:13:33;24.30;45.90
31542;DHT22;18152;49.986;8.646;2023-05-27T15:15:58;24.40;48.30
31542;DHT22;18152;49.986;8.646;2023-05-27T15:18:24;24.40;46.50
31542;DHT22;18152;49.986;8.646;2023-05-27T15:20:50;24.40;48.20
31542;DHT22;18152;49.986;8.646;2023-05-27T15:23:15;24.40;45.20
31542;DHT22;18152;49.986;8.646;2023-05-27T15:25:41;24.40;48.70
31542;DHT22;18152;49.986;8.646;2023-05-27T15:28:07;24.20;45.10
31542;DHT22;18152;49.986;8.646;2023-05-27T15:30:33;24.10;45.00